sensor_id;sensor_type;location;lat;lon;timestamp;P1;durP1;ratioP1;P2;durP2;ratioP2
34471;SDS011;20710;49.976;19.836;2023-06-22T00:04:59;7.90;;;6.60;;
34471;SDS011;20710;49.976;19.836;2023-06-22T00:11:39;7.80;;;6.50;;
34471;SDS011;20710;49.976;19.836;2023-06-22T00:18:38;9.60;;;7.40;;
34471;SDS011;20710;49.976;19.836;2023-06-22T00:25:33;9.00;;;6.40;;
34471;SDS011;20710;49.976;19.836;2023-06-22T00:32:51;10.80;;;6.60;;
34471;SDS011;20710;49.976;19.836;2023-06-22T00:39:58;13.80;;;8.00;;
34471;SDS011;20710;49.976;19.836;2023-06-22T00:47:15;14.30;;;10.40;;
34471;SDS011;20710;49.976;19.836;2023-06-22T00:54:24;16.00;;;10.30;;
34471;SDS011;20710;49.976;19.836;2023-06-22T01:13:45;15.50;;;9.20;;
34471;SDS011;20710;49.976;19.836;2023-06-22T01:19:59;12.10;;;8.40;;
34471;SDS011;20710;49.976;19.836;2023-06-22T01:34:11;14.80;;;8.10;;
34471;SDS011;20710;49.976;19.836;2023-06-22T01:40:51;13.70;;;8.40;;
34471;SDS011;20710;49.976;19.836;2023-06-22T01:47:22;11.90;;;7.50;;
34471;SDS011;20710;49.976;19.836;2023-06-22T01:53:26;10.70;;;7.60;;
34471;SDS011;20710;49.976;19.836;2023-06-22T02:07:05;9.20;;;7.20;;
34471;SDS011;20710;49.976;19.836;2023-06-22T02:13:11;16.30;;;7.90;;
34471;SDS011;20710;49.976;19.836;2023-06-22T02:20:28;9.20;;;6.70;;
34471;SDS011;20710;49.976;19.836;2023-06-22T02:26:54;10.70;;;7.20;;
34471;SDS011;20710;49.976;19.836;2023-06-22T02:34:01;10.70;;;6.90;;
34471;SDS011;20710;49.976;19.836;2023-06-22T02:40:31;9.10;;;7.30;;
34471;SDS011;20710;49.976;19.836;2023-06-22T02:46:58;12.60;;;8.30;;
34471;SDS011;20710;49.976;19.836;2023-06-22T03:01:06;8.40;;;6.60;;
34471;SDS011;20710;49.976;19.836;2023-06-22T03:14:44;10.90;;;6.30;;
34471;SDS011;20710;49.976;19.836;2023-06-22T03:21:52;12.00;;;6.80;;
34471;SDS011;20710;49.976;19.836;2023-06-22T03:27:58;9.70;;;7.10;;
34471;SDS011;20710;49.976;19.836;2023-06-22T03:35:04;12.00;;;7.20;;
34471;SDS011;20710;49.976;19.836;2023-06-22T03:41:18;10.40;;;6.50;;
34471;SDS011;20710;49.976;19.836;2023-06-22T03:47:27;11.10;;;7.80;;
34471;SDS011;20710;49.976;19.836;2023-06-22T03:54:09;11.00;;;6.80;;
34471;SDS011;20710;49.976;19.836;2023-06-22T04:08:11;13.80;;;7.50;;
34471;SDS011;20710;49.976;19.836;2023-06-22T04:14:41;17.70;;;9.50;;
34471;SDS011;20710;49.976;19.836;2023-06-22T04:21:04;14.80;;;8.10;;
34471;SDS011;20710;49.976;19.836;2023-06-22T04:28:16;14.90;;;7.50;;
34471;SDS011;20710;49.976;19.836;2023-06-22T04:43:06;12.40;;;9.20;;
34471;SDS011;20710;49.976;19.836;2023-06-22T04:49:49;14.90;;;9.80;;
34471;SDS011;20710;49.976;19.836;2023-06-22T05:03:51;15.30;;;9.40;;
34471;SDS011;20710;49.976;19.836;2023-06-22T05:10:40;11.70;;;7.90;;
34471;SDS011;20710;49.976;19.836;2023-06-22T05:23:20;13.40;;;7.50;;
34471;SDS011;20710;49.976;19.836;2023-06-22T05:29:23;13.00;;;7.20;;
34471;SDS011;20710;49.976;19.836;2023-06-22T05:35:24;14.70;;;6.60;;
34471;SDS011;20710;49.976;19.836;2023-06-22T05:41:48;13.10;;;8.40;;
34471;SDS011;20710;49.976;19.836;2023-06-22T05:54:52;19.00;;;9.10;;
34471;SDS011;20710;49.976;19.836;2023-06-22T06:10:21;13.30;;;8.40;;
34471;SDS011;20710;49.976;19.836;2023-06-22T06:16:24;15.10;;;8.40;;
34471;SDS011;20710;49.976;19.836;2023-06-22T06:37:01;18.10;;;9.40;;
34471;SDS011;20710;49.976;19.836;2023-06-22T06:49:58;16.60;;;10.10;;
34471;SDS011;20710;49.976;19.836;2023-06-22T06:56:25;17.70;;;9.60;;
34471;SDS011;20710;49.976;19.836;2023-06-22T07:02:33;13.80;;;9.50;;
34471;SDS011;20710;49.976;19.836;2023-06-22T07:08:59;13.60;;;10.00;;
34471;SDS011;20710;49.976;19.836;2023-06-22T07:15:11;17.40;;;9.80;;
34471;SDS011;20710;49.976;19.836;2023-06-22T07:21:30;15.20;;;11.00;;
34471;SDS011;20710;49.976;19.836;2023-06-22T07:27:31;14.00;;;10.50;;
34471;SDS011;20710;49.976;19.836;2023-06-22T07:34:01;15.60;;;10.90;;
34471;SDS011;20710;49.976;19.836;2023-06-22T07:40:03;15.60;;;11.80;;
34471;SDS011;20710;49.976;19.836;2023-06-22T07:46:19;15.90;;;11.40;;
34471;SDS011;20710;49.976;19.836;2023-06-22T07:53:16;21.30;;;12.90;;
34471;SDS011;20710;49.976;19.836;2023-06-22T07:59:24;15.00;;;11.80;;
34471;SDS011;20710;49.976;19.836;2023-06-22T08:05:39;14.90;;;11.30;;
34471;SDS011;20710;49.976;19.836;2023-06-22T08:11:43;19.60;;;12.70;;
34471;SDS011;20710;49.976;19.836;2023-06-22T08:17:44;18.80;;;12.40;;
34471;SDS011;20710;49.976;19.836;2023-06-22T08:24:27;19.00;;;13.20;;
34471;SDS011;20710;49.976;19.836;2023-06-22T08:30:31;18.20;;;13.40;;
34471;SDS011;20710;49.976;19.836;2023-06-22T08:36:39;19.50;;;14.10;;
34471;SDS011;20710;49.976;19.836;2023-06-22T08:42:56;15.80;;;12.80;;
34471;SDS011;20710;49.976;19.836;2023-06-22T08:49:19;17.50;;;15.70;;
34471;SDS011;20710;49.976;19.836;2023-06-22T08:55:24;23.80;;;17.20;;
34471;SDS011;20710;49.976;19.836;2023-06-22T09:09:06;22.20;;;19.20;;
34471;SDS011;20710;49.976;19.836;2023-06-22T09:15:48;22.00;;;18.70;;
34471;SDS011;20710;49.976;19.836;2023-06-22T09:28:40;22.30;;;18.80;;
34471;SDS011;20710;49.976;19.836;2023-06-22T09:35:05;20.20;;;18.20;;
34471;SDS011;20710;49.976;19.836;2023-06-22T09:41:43;19.70;;;17.80;;
34471;SDS011;20710;49.976;19.836;2023-06-22T09:47:45;16.90;;;15.30;;
34471;SDS011;20710;49.976;19.836;2023-06-22T09:53:52;16.40;;;14.80;;
34471;SDS011;20710;49.976;19.836;2023-06-22T09:59:56;15.50;;;13.90;;
34471;SDS011;20710;49.976;19.836;2023-06-22T10:05:58;19.00;;;15.00;;
34471;SDS011;20710;49.976;19.836;2023-06-22T10:18:26;17.60;;;15.40;;
34471;SDS011;20710;49.976;19.836;2023-06-22T10:24:29;16.70;;;14.90;;
34471;SDS011;20710;49.976;19.836;2023-06-22T10:31:32;16.90;;;15.20;;
34471;SDS011;20710;49.976;19.836;2023-06-22T10:37:49;14.10;;;12.70;;
34471;SDS011;20710;49.976;19.836;2023-06-22T10:44:32;14.90;;;13.00;;
34471;SDS011;20710;49.976;19.836;2023-06-22T10:50:33;19.30;;;13.90;;
34471;SDS011;20710;49.976;19.836;2023-06-22T10:56:35;12.80;;;11.70;;
34471;SDS011;20710;49.976;19.836;2023-06-22T11:02:46;13.80;;;12.30;;
34471;SDS011;20710;49.976;19.836;2023-06-22T11:08:53;13.70;;;12.20;;
34471;SDS011;20710;49.976;19.836;2023-06-22T11:15:24;14.20;;;12.80;;
34471;SDS011;20710;49.976;19.836;2023-06-22T11:21:28;11.20;;;9.70;;
34471;SDS011;20710;49.976;19.836;2023-06-22T11:27:29;11.40;;;10.30;;
34471;SDS011;20710;49.976;19.836;2023-06-22T11:33:31;10.70;;;9.70;;
34471;SDS011;20710;49.976;19.836;2023-06-22T11:39:35;11.00;;;10.00;;
34471;SDS011;20710;49.976;19.836;2023-06-22T11:45:40;11.80;;;10.70;;
34471;SDS011;20710;49.976;19.836;2023-06-22T11:51:46;11.50;;;10.40;;
34471;SDS011;20710;49.976;19.836;2023-06-22T11:57:55;9.70;;;8.70;;
34471;SDS011;20710;49.976;19.836;2023-06-22T12:04:15;9.90;;;8.90;;
34471;SDS011;20710;49.976;19.836;2023-06-22T12:10:17;11.30;;;9.60;;
34471;SDS011;20710;49.976;19.836;2023-06-22T12:16:18;12.10;;;10.80;;
34471;SDS011;20710;49.976;19.836;2023-06-22T12:22:20;10.80;;;9.70;;
34471;SDS011;20710;49.976;19.836;2023-06-22T12:28:21;10.90;;;9.70;;
34471;SDS011;20710;49.976;19.836;2023-06-22T12:34:28;12.30;;;11.10;;
34471;SDS011;20710;49.976;19.836;2023-06-22T12:40:30;11.30;;;10.00;;
34471;SDS011;20710;49.976;19.836;2023-06-22T12:53:20;12.60;;;11.30;;
34471;SDS011;20710;49.976;19.836;2023-06-22T12:59:35;14.20;;;11.60;;
34471;SDS011;20710;49.976;19.836;2023-06-22T13:05:40;15.80;;;12.80;;
34471;SDS011;20710;49.976;19.836;2023-06-22T13:12:05;14.10;;;12.60;;
34471;SDS011;20710;49.976;19.836;2023-06-22T13:18:28;13.00;;;11.60;;
34471;SDS011;20710;49.976;19.836;2023-06-22T13:25:18;13.10;;;11.80;;
34471;SDS011;20710;49.976;19.836;2023-06-22T13:31:24;12.60;;;11.30;;
34471;SDS011;20710;49.976;19.836;2023-06-22T13:37:26;11.60;;;10.50;;
34471;SDS011;20710;49.976;19.836;2023-06-22T13:43:27;11.50;;;10.40;;
34471;SDS011;20710;49.976;19.836;2023-06-22T13:49:28;13.10;;;10.60;;
34471;SDS011;20710;49.976;19.836;2023-06-22T13:55:36;13.30;;;10.70;;
34471;SDS011;20710;49.976;19.836;2023-06-22T14:01:43;10.30;;;9.30;;
34471;SDS011;20710;49.976;19.836;2023-06-22T14:07:49;11.20;;;9.30;;
34471;SDS011;20710;49.976;19.836;2023-06-22T14:13:57;10.10;;;9.10;;
34471;SDS011;20710;49.976;19.836;2023-06-22T14:20:23;11.00;;;9.40;;
34471;SDS011;20710;49.976;19.836;2023-06-22T14:26:26;9.60;;;8.70;;
34471;SDS011;20710;49.976;19.836;2023-06-22T14:33:09;14.90;;;8.90;;
34471;SDS011;20710;49.976;19.836;2023-06-22T14:39:13;12.10;;;7.60;;
34471;SDS011;20710;49.976;19.836;2023-06-22T14:45:15;9.00;;;8.20;;
34471;SDS011;20710;49.976;19.836;2023-06-22T14:51:36;10.00;;;8.10;;
34471;SDS011;20710;49.976;19.836;2023-06-22T14:57:38;9.40;;;8.50;;
34471;SDS011;20710;49.976;19.836;2023-06-22T15:04:19;11.70;;;7.90;;
34471;SDS011;20710;49.976;19.836;2023-06-22T15:10:20;9.80;;;7.10;;
34471;SDS011;20710;49.976;19.836;2023-06-22T15:16:21;7.80;;;6.50;;
34471;SDS011;20710;49.976;19.836;2023-06-22T15:22:42;7.00;;;6.40;;
34471;SDS011;20710;49.976;19.836;2023-06-22T15:28:43;8.70;;;6.60;;
34471;SDS011;20710;49.976;19.836;2023-06-22T15:34:44;8.30;;;6.90;;
34471;SDS011;20710;49.976;19.836;2023-06-22T15:40:50;7.40;;;6.70;;
34471;SDS011;20710;49.976;19.836;2023-06-22T15:47:02;10.70;;;6.40;;
34471;SDS011;20710;49.976;19.836;2023-06-22T15:53:04;8.40;;;6.60;;
34471;SDS011;20710;49.976;19.836;2023-06-22T15:59:25;8.00;;;6.80;;
34471;SDS011;20710;49.976;19.836;2023-06-22T16:05:52;7.90;;;6.40;;
34471;SDS011;20710;49.976;19.836;2023-06-22T16:11:54;11.40;;;7.10;;
34471;SDS011;20710;49.976;19.836;2023-06-22T16:18:16;7.10;;;6.40;;
34471;SDS011;20710;49.976;19.836;2023-06-22T16:24:17;12.40;;;6.80;;
34471;SDS011;20710;49.976;19.836;2023-06-22T16:30:19;9.20;;;6.80;;
34471;SDS011;20710;49.976;19.836;2023-06-22T16:36:53;8.80;;;7.50;;
34471;SDS011;20710;49.976;19.836;2023-06-22T16:42:55;10.10;;;6.80;;
34471;SDS011;20710;49.976;19.836;2023-06-22T16:48:59;9.10;;;7.80;;
34471;SDS011;20710;49.976;19.836;2023-06-22T16:55:38;6.90;;;6.20;;
34471;SDS011;20710;49.976;19.836;2023-06-22T17:01:51;9.40;;;7.50;;
34471;SDS011;20710;49.976;19.836;2023-06-22T17:07:59;8.70;;;6.80;;
34471;SDS011;20710;49.976;19.836;2023-06-22T17:15:40;10.00;;;6.60;;
34471;SDS011;20710;49.976;19.836;2023-06-22T17:22:21;9.50;;;7.20;;
34471;SDS011;20710;49.976;19.836;2023-06-22T17:28:25;7.70;;;6.90;;
34471;SDS011;20710;49.976;19.836;2023-06-22T17:34:30;7.70;;;6.90;;
34471;SDS011;20710;49.976;19.836;2023-06-22T17:40:47;8.70;;;7.60;;
34471;SDS011;20710;49.976;19.836;2023-06-22T17:47:24;11.10;;;7.10;;
34471;SDS011;20710;49.976;19.836;2023-06-22T17:54:02;8.60;;;7.00;;
34471;SDS011;20710;49.976;19.836;2023-06-22T18:00:46;7.60;;;6.80;;
34471;SDS011;20710;49.976;19.836;2023-06-22T18:07:08;11.90;;;7.40;;
34471;SDS011;20710;49.976;19.836;2023-06-22T18:13:49;8.20;;;7.00;;
34471;SDS011;20710;49.976;19.836;2023-06-22T18:20:20;11.80;;;7.50;;
34471;SDS011;20710;49.976;19.836;2023-06-22T18:26:38;12.90;;;7.70;;
34471;SDS011;20710;49.976;19.836;2023-06-22T18:32:45;8.40;;;7.20;;
34471;SDS011;20710;49.976;19.836;2023-06-22T18:39:06;9.20;;;6.60;;
34471;SDS011;20710;49.976;19.836;2023-06-22T18:45:23;10.60;;;6.80;;
34471;SDS011;20710;49.976;19.836;2023-06-22T18:58:11;9.30;;;7.20;;
34471;SDS011;20710;49.976;19.836;2023-06-22T19:04:34;12.10;;;7.70;;
34471;SDS011;20710;49.976;19.836;2023-06-22T19:11:18;13.20;;;7.70;;
34471;SDS011;20710;49.976;19.836;2023-06-22T19:17:41;11.60;;;7.90;;
34471;SDS011;20710;49.976;19.836;2023-06-22T19:24:02;9.60;;;7.70;;
34471;SDS011;20710;49.976;19.836;2023-06-22T19:30:04;8.80;;;7.70;;
34471;SDS011;20710;49.976;19.836;2023-06-22T19:36:24;13.00;;;8.80;;
34471;SDS011;20710;49.976;19.836;2023-06-22T19:43:17;9.60;;;8.20;;
34471;SDS011;20710;49.976;19.836;2023-06-22T19:49:33;10.50;;;8.00;;
34471;SDS011;20710;49.976;19.836;2023-06-22T19:56:20;9.50;;;7.90;;
34471;SDS011;20710;49.976;19.836;2023-06-22T20:02:25;12.40;;;8.20;;
34471;SDS011;20710;49.976;19.836;2023-06-22T20:08:27;13.40;;;7.90;;
34471;SDS011;20710;49.976;19.836;2023-06-22T20:14:35;12.00;;;8.10;;
34471;SDS011;20710;49.976;19.836;2023-06-22T20:21:13;10.00;;;7.90;;
34471;SDS011;20710;49.976;19.836;2023-06-22T20:27:14;8.30;;;7.40;;
34471;SDS011;20710;49.976;19.836;2023-06-22T20:33:35;8.20;;;6.90;;
34471;SDS011;20710;49.976;19.836;2023-06-22T20:40:35;9.50;;;7.80;;
34471;SDS011;20710;49.976;19.836;2023-06-22T20:47:00;9.00;;;7.70;;
34471;SDS011;20710;49.976;19.836;2023-06-22T20:53:15;11.00;;;7.70;;
34471;SDS011;20710;49.976;19.836;2023-06-22T20:59:16;11.00;;;7.80;;
34471;SDS011;20710;49.976;19.836;2023-06-22T21:06:40;11.40;;;7.20;;
34471;SDS011;20710;49.976;19.836;2023-06-22T21:13:00;10.80;;;8.50;;
34471;SDS011;20710;49.976;19.836;2023-06-22T21:19:03;9.40;;;6.90;;
34471;SDS011;20710;49.976;19.836;2023-06-22T21:25:08;11.50;;;8.00;;
34471;SDS011;20710;49.976;19.836;2023-06-22T21:31:11;12.30;;;8.10;;
34471;SDS011;20710;49.976;19.836;2023-06-22T21:37:12;9.20;;;7.80;;
34471;SDS011;20710;49.976;19.836;2023-06-22T21:43:14;12.00;;;8.40;;
34471;SDS011;20710;49.976;19.836;2023-06-22T21:49:58;8.90;;;7.90;;
34471;SDS011;20710;49.976;19.836;2023-06-22T21:56:20;13.20;;;9.70;;
34471;SDS011;20710;49.976;19.836;2023-06-22T22:02:46;11.60;;;8.40;;
34471;SDS011;20710;49.976;19.836;2023-06-22T22:08:48;13.60;;;9.40;;
34471;SDS011;20710;49.976;19.836;2023-06-22T22:21:06;9.90;;;8.90;;
34471;SDS011;20710;49.976;19.836;2023-06-22T22:27:31;11.60;;;9.20;;
34471;SDS011;20710;49.976;19.836;2023-06-22T22:33:43;12.50;;;8.80;;
34471;SDS011;20710;49.976;19.836;2023-06-22T22:40:06;9.50;;;8.50;;
34471;SDS011;20710;49.976;19.836;2023-06-22T22:46:11;11.90;;;9.70;;
34471;SDS011;20710;49.976;19.836;2023-06-22T22:52:12;12.00;;;9.90;;
34471;SDS011;20710;49.976;19.836;2023-06-22T22:58:20;12.40;;;9.40;;
34471;SDS011;20710;49.976;19.836;2023-06-22T23:05:09;12.40;;;10.40;;
34471;SDS011;20710;49.976;19.836;2023-06-22T23:11:11;10.80;;;9.70;;
34471;SDS011;20710;49.976;19.836;2023-06-22T23:17:12;12.10;;;9.90;;
34471;SDS011;20710;49.976;19.836;2023-06-22T23:23:14;13.10;;;10.30;;
34471;SDS011;20710;49.976;19.836;2023-06-22T23:29:21;12.50;;;10.10;;
34471;SDS011;20710;49.976;19.836;2023-06-22T23:36:06;14.30;;;11.20;;
34471;SDS011;20710;49.976;19.836;2023-06-22T23:42:14;13.20;;;10.40;;
34471;SDS011;20710;49.976;19.836;2023-06-22T23:48:16;11.10;;;9.10;;
34471;SDS011;20710;49.976;19.836;2023-06-22T23:54:17;12.60;;;10.30;;
